Autor Thema: CUL FW 1.63 mit 433mhz SCC  (Gelesen 2285 mal)

Offline SkorpionMB

  • New Member
  • *
  • Beiträge: 19
CUL FW 1.63 mit 433mhz SCC
« am: 22 Februar 2015, 12:18:13 »
Seit dem update meines 433mhz SCC auf die fw 1.63 habe ich probleme
 ich habe fhem auf einem raspberry mit 2 SCC 1.868mhz slowrf 2.433mhz, 1 CUL868mhz hm,1 Tul
der 433mhz scc scheint jetzt auf 868mhz zu arbeiten und zum schalten von IT steckdosen auf 433mhz umzuschalten  bei abfrage der eingestellten frequenz steht 433,92mhz fhem hat seit dem update der firmware gestern per autocreate geräte mit der id 0 erstellt (je nach stellen der id entsprechend 0en) für FHT,CUL_TX,HMS die erstellten geräte empfangen keine oder irreale werte bei den geräten steht empfangen von io device SCC2 also der für 433mhz
alle "normalen" schon definierte geräte auf 868mhz funktionieren einwandfrei und werden auch nur über den SCC1 für 868mhz empfangen oder homematic über CUL
hier ein paar daten vom scc2 von gestern mit set raw x25
2015-02-21 18:37:29 STACKABLE_CC SCC2 UNKNOWNCODE p 3 32 288 144 688 4 3 0 2F 000000
2015-02-21 18:37:39 STACKABLE_CC SCC2 UNKNOWNCODE p 3 48 288 112 672 8 2 7 2F 000041
2015-02-21 18:38:22 STACKABLE_CC SCC2 UNKNOWNCODE p 3 64 288 16 672 6 4 0 2F 80000000
2015-02-21 18:38:25 HMS HMS100TF_0000 temperature: 0
2015-02-21 18:38:25 HMS HMS100TF_0000 humidity: 0
2015-02-21 18:38:25 HMS HMS100TF_0000 battery: ok
2015-02-21 18:38:25 HMS HMS100TF_0000 type: HMS100TF
2015-02-21 18:38:25 HMS HMS100TF_0000 T: 0 H: 0 Bat: ok
2015-02-21 18:38:25 STACKABLE_CC SCC2 UNKNOWNCODE p 3 32 288 16 1040 8 9 0 2E 000000000000000000
2015-02-21 18:38:49 STACKABLE_CC SCC2 UNKNOWNCODE p 5 176 192 128 3984 73 3 0 26 637B49
2015-02-21 18:39:01 STACKABLE_CC SCC2 UNKNOWNCODE p 3 80 272 32 672 5 6 2 2F 00000000000020
2015-02-21 18:39:09 STACKABLE_CC SCC2 UNKNOWNCODE p 5 192 192 240 3872 63 3 7 26 F11AF46C
2015-02-21 18:40:11 STACKABLE_CC SCC2 UNKNOWNCODE p 3 80 288 32 672 4 6 4 2D 00000000000008
2015-02-21 18:40:24 STACKABLE_CC SCC2 UNKNOWNCODE p 3 80 288 32 672 5 3 7 2E 80001001
2015-02-21 18:40:43 STACKABLE_CC SCC2 UNKNOWNCODE p 5 128 176 256 240 58 4 4 26 EF31AF4C10
2015-02-21 18:40:53 STACKABLE_CC SCC2 UNKNOWNCODE p 3 80 288 16 688 6 5 7 2F 010400000001
2015-02-21 18:41:04 STACKABLE_CC SCC2 UNKNOWNCODE p 3 48 288 32 672 7 4 3 2F 0000000830
2015-02-21 18:43:04 STACKABLE_CC SCC2 UNKNOWNCODE p 5 48 256 240 240 14 6 1 26 7555BC46BD3A00
2015-02-21 18:43:26 STACKABLE_CC SCC2 UNKNOWNCODE p 5 128 176 256 240 58 4 4 26 F700D7A368
2015-02-21 18:43:29 STACKABLE_CC SCC2 UNKNOWNCODE p 3 48 272 48 4064 7 4 3 2E 0000000010
2015-02-21 18:43:30 STACKABLE_CC SCC2 UNKNOWNCODE p 3 352 1040 352 2016 8 2 2 E7 1FD160
2015-02-21 18:43:50 HMS HMS100TF_0000 temperature: 0
2015-02-21 18:43:50 HMS HMS100TF_0000 humidity: 0
2015-02-21 18:43:50 HMS HMS100TF_0000 battery: ok
2015-02-21 18:43:50 HMS HMS100TF_0000 type: HMS100TF
2015-02-21 18:43:50 HMS HMS100TF_0000 T: 0 H: 0 Bat: ok
2015-02-21 18:43:50 STACKABLE_CC SCC2 UNKNOWNCODE p 3 176 192 32 4080 5 9 2 27 00000000000000000000
2015-02-21 18:44:01 STACKABLE_CC SCC2 UNKNOWNCODE p 5 128 176 256 240 38 6 1 26 7555BC46BD3B00
2015-02-21 18:44:18 STACKABLE_CC SCC2 UNKNOWNCODE p 3 48 288 32 672 7 4 1 2F 0000000040
2015-02-21 18:44:20 STACKABLE_CC SCC2 UNKNOWNCODE p 5 128 176 256 240 38 6 2 27 7156CE235E9D00
2015-02-21 18:44:38 STACKABLE_CC SCC2 UNKNOWNCODE p 3 48 288 32 672 5 8 3 2E 000002000000000210
2015-02-21 18:44:39 STACKABLE_CC SCC2 UNKNOWNCODE p 5 128 176 256 240 38 6 3 27 7156DE6390DC60
2015-02-21 18:44:42 STACKABLE_CC SCC2 UNKNOWNCODE p 3 32 288 48 672 5 6 2 2E 00000400000020
2015-02-21 18:44:47 STACKABLE_CC SCC2 UNKNOWNCODE p 3 32 288 16 704 6 4 2 2E 0000000020
2015-02-21 18:44:51 STACKABLE_CC SCC2 UNKNOWNCODE p 3 32 288 128 672 5 2 2 2F 020020
2015-02-21 18:45:06 STACKABLE_CC SCC2 UNKNOWNCODE p 3 48 288 48 4064 4 4 5 2F 0000000004
2015-02-21 18:45:25 STACKABLE_CC SCC2 UNKNOWNCODE p 3 80 288 48 640 4 11 2 2F 400000000604020000040020
2015-02-21 18:46:15 STACKABLE_CC SCC2 UNKNOWNCODE p 3 32 288 32 672 6 8 1 2F 000000000000000040
2015-02-21 18:46:46 STACKABLE_CC SCC2 UNKNOWNCODE p 3 32 288 384 320 9 4 5 2F 0000000000
2015-02-21 18:46:58 STACKABLE_CC SCC2 UNKNOWNCODE p 5 160 176 256 3856 59 4 4 26 F7B1AF43E0
2015-02-21 18:47:10 STACKABLE_CC SCC2 UNKNOWNCODE p 3 32 288 16 688 6 5 4 2F 000000000008
2015-02-21 18:47:29 STACKABLE_CC SCC2 UNKNOWNCODE p 5 48 256 240 224 13 6 2 26 7555BCC6BC78C0
2015-02-21 18:48:03 STACKABLE_CC SCC2 UNKNOWNCODE p 5 96 208 256 240 23 6 1 28 7555BC46BD3A00
2015-02-21 18:48:32 STACKABLE_CC SCC2 UNKNOWNCODE p 5 80 208 256 224 23 6 1 26 7555DE46BD0D80
2015-02-21 18:48:38 STACKABLE_CC SCC2 UNKNOWNCODE p 5 144 192 128 3984 43 6 0 26 3556F31C86E3
2015-02-21 18:48:39 STACKABLE_CC SCC2 UNKNOWNCODE p 3 64 288 144 688 4 3 0 2F 000000
2015-02-21 18:48:45 STACKABLE_CC SCC2 UNKNOWNCODE p 3 80 288 32 4080 8 8 0 2F 0000000000000000
2015-02-21 18:48:55 STACKABLE_CC SCC2 UNKNOWNCODE p 5 96 208 256 240 23 6 2 28 7156CE235E9D00
FHTTK + FHT + HM + Eib + IT + TCM + CUL_TX + Revolt +TCM +HMS @ 2x SCC + CUL + TUL +RfxTrx433 @ RaspberryPi2 + Heatronic @ RaspberryPI B

Offline SkorpionMB

  • New Member
  • *
  • Beiträge: 19
Antw:CUL FW 1.63 mit 433mhz SCC
« Antwort #1 am: 04 März 2015, 08:30:48 »
Gelöst!
fehler beim flashen falsche FW
FHTTK + FHT + HM + Eib + IT + TCM + CUL_TX + Revolt +TCM +HMS @ 2x SCC + CUL + TUL +RfxTrx433 @ RaspberryPi2 + Heatronic @ RaspberryPI B

 

decade-submarginal